Time;durP1;ratioP1;P1;durP2;ratioP2;P2;SDS_P1;SDS_P2;PMS_P1;PMS_P2;Temp;Humidity;BMP_temperature;BMP_pressure;BME280_temperature;BME280_humidity;BME280_pressure;Samples;Min_cycle;Max_cycle;Signal;HPM_P1;HPM_P2
2022/07/29 00:00:06;;;;;;;0.60;0.60;;;16.70;61.40;16.70;100829.00;;;;4954425;28;115251;-63
2022/07/29 00:02:32;;;;;;;1.45;0.50;;;16.60;61.70;16.70;100833.00;;;;4954704;28;106796;-59
2022/07/29 00:04:58;;;;;;;0.60;0.60;;;16.60;62.40;16.70;100830.00;;;;4954700;28;104485;-63
2022/07/29 00:07:24;;;;;;;0.98;0.65;;;16.50;63.00;16.60;100825.00;;;;4955017;28;92919;-62
2022/07/29 00:09:50;;;;;;;4.35;1.02;;;16.50;63.10;16.60;100829.00;;;;4954533;28;94820;-63
2022/07/29 00:12:16;;;;;;;1.05;0.70;;;16.50;63.50;16.60;100818.00;;;;4954181;28;107051;-63
2022/07/29 00:14:41;;;;;;;0.50;0.50;;;16.50;64.00;16.50;100813.00;;;;4954667;28;111233;-61
2022/07/29 00:17:07;;;;;;;0.68;0.60;;;16.40;64.20;16.50;100813.00;;;;4954048;28;109741;-63
2022/07/29 00:19:34;;;;;;;0.55;0.52;;;16.40;64.90;16.50;100816.00;;;;4953878;28;123289;-63
2022/07/29 00:22:00;;;;;;;0.75;0.63;;;16.40;65.10;16.40;100812.00;;;;4954674;28;92972;-62
2022/07/29 00:24:26;;;;;;;0.98;0.93;;;16.30;66.00;16.40;100808.00;;;;4954639;28;99175;-63
2022/07/29 00:26:51;;;;;;;0.73;0.50;;;16.30;66.30;16.40;100796.00;;;;4953389;28;98402;-59
2022/07/29 00:29:18;;;;;;;0.90;0.60;;;16.30;67.00;16.30;100801.00;;;;4954585;28;93179;-63
2022/07/29 00:31:44;;;;;;;1.33;1.08;;;16.30;67.30;16.30;100799.00;;;;4954253;28;93271;-62
2022/07/29 00:35:43;;;;;;;0.30;0.30;;;16.20;68.00;16.30;100798.00;;;;4953597;28;101957;-61
2022/07/29 00:36:55;;;;;;;4.20;0.50;;;16.20;68.40;16.20;100797.00;;;;4954208;28;92806;-62
2022/07/29 00:39:21;;;;;;;1.75;0.93;;;16.10;69.70;16.20;100788.00;;;;4953756;28;108954;-62
2022/07/29 00:41:47;;;;;;;1.05;0.60;;;16.10;70.10;16.20;100791.00;;;;4935744;28;93155;-61
2022/07/29 00:44:13;;;;;;;3.03;0.50;;;16.10;70.60;16.10;100782.00;;;;4954273;28;109970;-61
2022/07/29 00:46:39;;;;;;;2.05;1.13;;;16.00;71.30;16.10;100788.00;;;;4953617;28;108929;-63
2022/07/29 00:49:04;;;;;;;3.10;1.05;;;16.00;71.80;16.00;100788.00;;;;4954007;28;122832;-62
2022/07/29 00:51:31;;;;;;;0.88;0.63;;;16.00;72.60;16.00;100784.00;;;;4953491;28;122197;-62
2022/07/29 00:53:57;;;;;;;1.23;0.70;;;15.90;73.10;16.00;100767.00;;;;4953966;28;108980;-62
2022/07/29 00:56:23;;;;;;;0.60;0.60;;;15.70;73.30;15.90;100771.00;;;;4953838;28;107710;-62
2022/07/29 00:58:51;;;;;;;1.08;0.70;;;15.80;74.20;15.90;100775.00;;;;4952287;28;124433;-62
2022/07/29 01:01:17;;;;;;;1.27;1.02;;;15.80;74.40;15.90;100764.00;;;;4934004;28;123652;-61
2022/07/29 01:03:42;;;;;;;1.00;0.82;;;15.80;74.70;15.80;100776.00;;;;4947107;28;111322;-62
2022/07/29 01:06:09;;;;;;;1.25;0.90;;;15.80;75.10;15.80;100768.00;;;;4953307;28;108561;-61
2022/07/29 01:08:35;;;;;;;1.75;1.23;;;15.70;75.30;15.80;100764.00;;;;4952639;28;123153;-61
2022/07/29 01:11:02;;;;;;;1.40;0.75;;;15.70;75.50;15.70;100762.00;;;;4919542;28;95433;-62
2022/07/29 01:13:29;;;;;;;4.03;1.23;;;15.70;75.90;15.70;100767.00;;;;4935118;28;102323;-62
2022/07/29 01:16:04;;;;;;;1.02;0.45;;;15.60;76.00;15.70;100764.00;;;;4953581;28;97563;-62
2022/07/29 01:18:39;;;;;;;2.17;1.00;;;15.60;76.40;15.60;100762.00;;;;4935474;28;109923;-62
2022/07/29 01:21:37;;;;;;;1.93;1.10;;;15.60;76.80;15.60;100753.00;;;;4935322;28;92979;-62
2022/07/29 01:24:42;;;;;;;2.53;0.80;;;15.50;77.20;15.50;100750.00;;;;4934785;28;101273;-62
2022/07/29 01:27:41;;;;;;;0.67;0.63;;;15.50;77.50;15.50;100746.00;;;;4935220;28;98940;-62
2022/07/29 01:30:07;;;;;;;1.27;0.90;;;15.40;78.10;15.50;100742.00;;;;4953635;28;93508;-62
2022/07/29 01:32:36;;;;;;;1.60;0.60;;;15.60;78.50;15.50;100744.00;;;;4934162;28;121416;-62
2022/07/29 01:35:32;;;;;;;1.50;1.07;;;15.40;78.90;15.40;100745.00;;;;4935417;28;92925;-61
2022/07/29 01:38:09;;;;;;;1.03;1.00;;;15.40;79.00;15.40;100739.00;;;;4943883;28;92888;-61
2022/07/29 01:40:48;;;;;;;1.77;1.07;;;15.30;79.50;15.40;100741.00;;;;4935081;28;94373;-61
2022/07/29 01:43:21;;;;;;;0.73;0.60;;;15.30;79.70;15.30;100734.00;;;;4935721;28;97177;-61
2022/07/29 01:46:00;;;;;;;0.60;0.60;;;15.30;79.90;15.30;100727.00;;;;4935219;28;92814;-61
2022/07/29 01:48:50;;;;;;;0.57;0.57;;;15.30;80.40;15.30;100721.00;;;;4936826;28;93093;-61
2022/07/29 01:51:35;;;;;;;1.00;0.75;;;15.20;80.30;15.20;100725.00;;;;4934821;28;94598;-62
2022/07/29 01:54:08;;;;;;;2.13;1.40;;;15.20;80.50;15.20;100733.00;;;;4934791;28;108770;-61
2022/07/29 01:56:36;;;;;;;0.50;0.50;;;15.20;80.60;15.20;100732.00;;;;4933791;28;104779;-62
2022/07/29 01:59:04;;;;;;;1.30;0.80;;;15.10;80.60;15.20;100740.00;;;;4935753;28;93056;-61
2022/07/29 02:01:32;;;;;;;0.73;0.73;;;15.10;80.70;15.20;100733.00;;;;4952560;28;105832;-62
2022/07/29 02:04:03;;;;;;;0.80;0.80;;;15.10;80.60;15.10;100729.00;;;;4953854;28;93770;-62
2022/07/29 02:06:31;;;;;;;1.17;1.10;;;15.10;80.90;15.10;100735.00;;;;4953360;28;92736;-62
2022/07/29 02:08:59;;;;;;;0.50;0.50;;;15.00;80.80;15.10;100731.00;;;;4935889;28;92031;-63
2022/07/29 02:11:25;;;;;;;0.70;0.70;;;15.00;81.00;15.10;100726.00;;;;4953041;28;93820;-62
2022/07/29 02:13:54;;;;;;;4.37;1.13;;;15.00;81.10;15.10;100726.00;;;;4951775;28;123072;-62
2022/07/29 02:16:22;;;;;;;1.43;0.80;;;15.00;81.10;15.10;100720.00;;;;4952326;28;109456;-62
2022/07/29 02:18:52;;;;;;;0.83;0.80;;;15.00;81.10;15.10;100721.00;;;;4953229;28;94750;-62
2022/07/29 02:21:24;;;;;;;2.07;0.80;;;15.00;81.20;15.10;100726.00;;;;4934796;28;93502;-63
2022/07/29 02:23:52;;;;;;;0.80;0.80;;;15.00;81.40;15.10;100727.00;;;;4933662;28;106767;-63
2022/07/29 02:26:20;;;;;;;1.30;1.03;;;15.00;81.60;15.10;100729.00;;;;4934744;28;92966;-62
2022/07/29 02:28:53;;;;;;;1.37;1.07;;;15.00;81.80;15.10;100724.00;;;;4953131;28;92887;-62
2022/07/29 02:31:24;;;;;;;3.83;0.87;;;15.00;81.80;15.10;100735.00;;;;4953290;28;94417;-62
2022/07/29 02:33:51;;;;;;;1.03;0.93;;;15.00;82.30;15.10;100722.00;;;;4934583;28;93527;-62
2022/07/29 02:36:18;;;;;;;0.83;0.67;;;15.00;82.50;15.00;100725.00;;;;4952999;28;103495;-62
2022/07/29 02:38:51;;;;;;;2.93;1.27;;;15.00;82.60;15.00;100738.00;;;;4933671;28;108870;-62
2022/07/29 02:41:27;;;;;;;8.83;1.20;;;15.00;82.80;15.00;100735.00;;;;4935437;28;94684;-62
2022/07/29 02:43:58;;;;;;;1.50;0.73;;;14.90;82.50;15.00;100735.00;;;;4952998;28;94363;-62
2022/07/29 02:46:36;;;;;;;0.57;0.57;;;14.90;82.50;15.00;100733.00;;;;4933877;28;93623;-63
2022/07/29 02:49:47;;;;;;;0.73;0.73;;;14.90;82.70;15.00;100737.00;;;;4934920;28;92984;-62
2022/07/29 02:52:22;;;;;;;1.27;0.70;;;14.90;82.90;15.00;100735.00;;;;4900978;28;112460;-62
2022/07/29 02:55:17;;;;;;;1.03;0.67;;;14.90;83.00;15.00;100731.00;;;;4934073;28;95366;-62
2022/07/29 02:57:59;;;;;;;0.60;0.60;;;14.90;83.00;15.00;100738.00;;;;4953604;28;92945;-62
2022/07/29 03:00:30;;;;;;;3.83;0.87;;;14.90;83.10;15.00;100732.00;;;;4938419;28;92295;-62
2022/07/29 03:02:59;;;;;;;1.03;0.77;;;14.90;83.20;15.00;100739.00;;;;4937042;28;109710;-62
2022/07/29 03:05:26;;;;;;;3.80;1.07;;;14.90;83.20;15.00;100737.00;;;;4937144;28;92870;-62
2022/07/29 03:07:57;;;;;;;2.03;1.03;;;14.90;83.00;15.10;100731.00;;;;4936926;28;93770;-62
2022/07/29 03:10:25;;;;;;;3.03;1.23;;;15.00;83.20;15.10;100736.00;;;;4939016;28;93531;-62
2022/07/29 03:12:52;;;;;;;1.27;0.70;;;15.00;83.10;15.10;100737.00;;;;4937190;28;93068;-62
2022/07/29 03:15:18;;;;;;;5.30;1.13;;;15.00;83.00;15.10;100732.00;;;;4937297;28;93548;-62
2022/07/29 03:17:45;;;;;;;0.93;0.67;;;15.00;83.00;15.20;100733.00;;;;4956027;28;93454;-62
2022/07/29 03:20:12;;;;;;;2.17;0.90;;;15.10;83.00;15.20;100732.00;;;;4955585;28;108946;-62
2022/07/29 03:22:43;;;;;;;1.37;0.67;;;15.10;83.00;15.20;100731.00;;;;4955562;28;93287;-62
2022/07/29 03:25:15;;;;;;;1.53;0.90;;;15.10;82.90;15.30;100740.00;;;;4956174;28;93758;-62
2022/07/29 03:27:42;;;;;;;0.70;0.70;;;15.10;82.60;15.30;100734.00;;;;4956255;28;92950;-62
2022/07/29 03:30:11;;;;;;;0.57;0.50;;;15.20;82.40;15.30;100730.00;;;;4955541;28;98323;-62
2022/07/29 03:32:37;;;;;;;1.87;0.50;;;15.20;82.00;15.40;100727.00;;;;4954774;28;94279;-62
2022/07/29 03:35:04;;;;;;;2.03;0.90;;;15.20;81.50;15.40;100728.00;;;;4955145;28;94621;-62
2022/07/29 03:37:30;;;;;;;0.70;0.60;;;15.30;81.20;15.40;100726.00;;;;4955125;28;98981;-62
2022/07/29 03:39:58;;;;;;;2.60;0.87;;;15.30;80.90;15.50;100722.00;;;;4937378;28;92787;-62
2022/07/29 03:42:28;;;;;;;4.83;0.87;;;15.40;80.50;15.50;100721.00;;;;4954010;28;123514;-62
2022/07/29 03:44:57;;;;;;;1.23;0.90;;;15.40;80.40;15.50;100714.00;;;;4936540;28;109750;-61
2022/07/29 03:47:25;;;;;;;1.67;0.97;;;15.40;79.70;15.60;100711.00;;;;4954483;28;103604;-62
2022/07/29 03:49:54;;;;;;;4.93;0.70;;;15.40;79.40;15.60;100719.00;;;;4956224;28;92145;-61
2022/07/29 03:52:21;;;;;;;2.40;0.90;;;15.50;79.10;15.60;100703.00;;;;4936416;28;109319;-61
2022/07/29 03:54:47;;;;;;;2.27;0.87;;;15.50;78.80;15.70;100706.00;;;;4935853;28;120405;-63
2022/07/29 03:57:16;;;;;;;1.80;0.77;;;15.60;79.30;15.70;100706.00;;;;4936564;28;93808;-63
2022/07/29 03:59:42;;;;;;;1.10;1.00;;;15.50;78.40;15.70;100706.00;;;;4937098;28;92976;-61
2022/07/29 04:02:11;;;;;;;1.20;1.10;;;15.60;78.30;15.80;100712.00;;;;4936665;28;93279;-62
2022/07/29 04:04:37;;;;;;;3.85;1.13;;;15.60;78.10;15.80;100712.00;;;;4936611;28;114177;-62
2022/07/29 04:07:04;;;;;;;0.80;0.80;;;15.70;78.00;15.80;100707.00;;;;4955171;28;92830;-63
2022/07/29 04:09:30;;;;;;;1.23;1.13;;;15.70;77.90;15.90;100712.00;;;;4956193;28;93288;-62
2022/07/29 04:11:56;;;;;;;1.02;0.73;;;15.70;77.70;15.90;100709.00;;;;4954124;28;117934;-62
2022/07/29 04:14:22;;;;;;;2.40;0.93;;;15.70;77.50;15.90;100706.00;;;;4955474;28;92765;-62
2022/07/29 04:16:47;;;;;;;2.83;0.73;;;15.80;77.50;15.90;100705.00;;;;4954726;28;108792;-63
2022/07/29 04:19:13;;;;;;;1.42;1.17;;;15.80;77.40;16.00;100716.00;;;;4954653;28;109335;-62
2022/07/29 04:21:40;;;;;;;2.22;1.23;;;15.80;77.30;16.00;100707.00;;;;4902743;28;120652;-62
2022/07/29 04:24:07;;;;;;;1.80;0.53;;;15.80;77.30;16.00;100713.00;;;;4952251;28;109188;-62
2022/07/29 04:26:33;;;;;;;2.27;1.30;;;15.90;77.30;16.00;100709.00;;;;4947323;28;104587;-63
2022/07/29 04:28:59;;;;;;;0.70;0.70;;;15.90;77.10;16.00;100713.00;;;;4935104;28;92841;-62
2022/07/29 04:31:25;;;;;;;1.73;0.80;;;15.90;76.80;16.00;100713.00;;;;4951899;28;122757;-63
2022/07/29 04:33:50;;;;;;;1.10;1.02;;;15.90;76.50;16.10;100723.00;;;;4954447;28;122287;-63
2022/07/29 04:36:16;;;;;;;0.95;0.95;;;15.90;76.10;16.10;100727.00;;;;4953928;28;110534;-63
2022/07/29 04:38:42;;;;;;;0.63;0.63;;;16.00;75.90;16.10;100724.00;;;;4954687;28;107511;-62
2022/07/29 04:41:08;;;;;;;2.25;0.68;;;16.00;75.70;16.20;100719.00;;;;4953743;28;122133;-63
2022/07/29 04:43:34;;;;;;;1.63;0.95;;;16.00;75.50;16.20;100717.00;;;;4954842;28;92704;-63
2022/07/29 04:46:00;;;;;;;0.88;0.88;;;16.00;75.30;16.20;100710.00;;;;4952936;28;98909;-62
2022/07/29 04:48:26;;;;;;;0.75;0.73;;;16.10;75.30;16.30;100712.00;;;;4954476;28;92856;-63
2022/07/29 04:50:52;;;;;;;2.30;0.80;;;16.10;75.00;16.30;100725.00;;;;4954147;28;94377;-62
2022/07/29 04:53:18;;;;;;;1.40;0.82;;;16.20;75.00;16.40;100719.00;;;;4953116;28;121596;-63
2022/07/29 04:55:44;;;;;;;1.23;1.02;;;16.20;74.90;16.40;100726.00;;;;4954629;28;92941;-62
2022/07/29 04:58:11;;;;;;;4.25;1.92;;;16.20;74.80;16.50;100724.00;;;;4954121;28;92977;-63
2022/07/29 05:00:36;;;;;;;3.95;1.05;;;16.30;74.80;16.50;100726.00;;;;4954283;28;93450;-62
2022/07/29 05:03:03;;;;;;;4.57;1.17;;;16.40;74.60;16.60;100724.00;;;;4954148;28;117372;-63
2022/07/29 05:05:29;;;;;;;0.80;0.75;;;16.40;74.40;16.70;100716.00;;;;4953952;28;96098;-62
2022/07/29 05:07:55;;;;;;;2.58;0.95;;;16.50;74.00;16.70;100715.00;;;;4935011;28;93041;-62
2022/07/29 05:10:21;;;;;;;4.45;1.00;;;16.50;73.50;16.80;100715.00;;;;4953330;28;94534;-62
2022/07/29 05:12:46;;;;;;;1.58;0.95;;;16.60;73.30;16.90;100709.00;;;;4952835;28;122485;-61
2022/07/29 05:15:12;;;;;;;1.15;0.95;;;16.70;72.90;17.00;100707.00;;;;4954221;28;92869;-61
2022/07/29 05:17:38;;;;;;;0.57;0.40;;;16.80;72.70;17.10;100711.00;;;;4953112;28;108060;-63
2022/07/29 05:20:06;;;;;;;1.13;0.68;;;16.80;72.40;17.10;100710.00;;;;4954480;28;93994;-63
2022/07/29 05:22:31;;;;;;;1.17;0.77;;;16.90;72.00;17.20;100707.00;;;;4952688;28;93065;-63
2022/07/29 05:24:57;;;;;;;1.02;0.52;;;16.90;71.60;17.20;100716.00;;;;4952977;28;108294;-63
2022/07/29 05:27:23;;;;;;;1.23;1.10;;;17.00;71.50;17.20;100715.00;;;;4953626;28;96107;-61
2022/07/29 05:29:48;;;;;;;0.88;0.77;;;17.10;71.40;17.30;100712.00;;;;4952861;28;122870;-63
2022/07/29 05:32:14;;;;;;;1.27;0.70;;;17.10;71.20;17.30;100710.00;;;;4953208;28;94031;-62
2022/07/29 05:34:41;;;;;;;0.55;0.55;;;17.10;70.90;17.30;100719.00;;;;4952720;28;110244;-63
2022/07/29 05:37:06;;;;;;;1.58;1.10;;;17.10;70.90;17.40;100718.00;;;;4953411;28;92850;-63
2022/07/29 05:39:32;;;;;;;1.83;1.13;;;17.20;70.90;17.40;100722.00;;;;4953796;28;93990;-63
2022/07/29 05:41:58;;;;;;;0.70;0.65;;;17.30;70.70;17.50;100722.00;;;;4952700;28;122572;-62
2022/07/29 05:44:23;;;;;;;0.82;0.82;;;17.30;70.20;17.50;100725.00;;;;4953259;28;109821;-62
2022/07/29 05:46:49;;;;;;;0.75;0.68;;;17.30;70.00;17.60;100722.00;;;;4952950;28;109009;-63
2022/07/29 05:49:15;;;;;;;2.05;1.15;;;17.40;69.90;17.60;100725.00;;;;4953710;28;96737;-63
2022/07/29 05:51:40;;;;;;;1.77;0.77;;;17.40;69.30;17.70;100727.00;;;;4954348;28;92956;-63
2022/07/29 05:54:06;;;;;;;1.55;1.25;;;17.50;69.10;17.80;100735.00;;;;4952772;28;109045;-63
2022/07/29 05:56:32;;;;;;;1.10;1.00;;;17.60;69.10;18.00;100733.00;;;;4934121;28;106803;-63
2022/07/29 05:58:58;;;;;;;1.67;0.90;;;17.70;69.00;18.20;100728.00;;;;4951385;28;123725;-62
2022/07/29 06:01:23;;;;;;;0.60;0.57;;;17.90;68.80;18.40;100723.00;;;;4953336;28;94694;-63
2022/07/29 06:03:49;;;;;;;2.17;0.77;;;18.10;68.20;18.60;100726.00;;;;4951392;28;102080;-63
2022/07/29 06:06:15;;;;;;;1.25;0.88;;;18.30;67.00;18.70;100722.00;;;;4953309;28;92998;-63
2022/07/29 06:08:41;;;;;;;1.23;0.95;;;18.40;66.80;18.80;100721.00;;;;4951537;28;123770;-63
2022/07/29 06:11:08;;;;;;;1.85;1.08;;;18.50;66.40;18.90;100726.00;;;;4952275;28;123551;-63
2022/07/29 06:13:34;;;;;;;2.45;1.00;;;18.60;65.70;18.90;100723.00;;;;4953547;28;92838;-62
2022/07/29 06:15:59;;;;;;;3.40;1.13;;;18.70;64.90;19.00;100725.00;;;;4953047;28;107677;-62
2022/07/29 06:18:25;;;;;;;7.15;1.02;;;18.80;64.60;19.10;100724.00;;;;4953083;28;94027;-63
2022/07/29 06:20:51;;;;;;;1.15;0.88;;;18.90;64.10;19.20;100733.00;;;;4952705;28;93611;-62
2022/07/29 06:23:19;;;;;;;1.63;0.90;;;19.00;64.40;19.40;100723.00;;;;4952869;28;93823;-63
2022/07/29 06:25:44;;;;;;;2.35;1.10;;;19.10;63.90;19.50;100727.00;;;;4952522;28;92763;-62
2022/07/29 06:28:10;;;;;;;1.48;1.00;;;19.20;63.00;19.60;100730.00;;;;4951961;28;122309;-63
2022/07/29 06:30:36;;;;;;;2.38;0.90;;;19.30;63.10;19.70;100723.00;;;;4952485;28;94037;-62
2022/07/29 06:33:03;;;;;;;1.92;0.70;;;19.40;62.80;19.80;100727.00;;;;4953514;28;93207;-63
2022/07/29 06:35:28;;;;;;;2.20;1.40;;;19.50;62.40;19.80;100719.00;;;;4952433;28;92694;-62
2022/07/29 06:37:54;;;;;;;2.97;1.42;;;19.60;61.90;19.90;100721.00;;;;4933254;28;124999;-62
2022/07/29 06:43:04;;;;;;;0.77;0.60;;;19.70;62.00;20.00;100736.00;;;;4952423;28;93173;-63
2022/07/29 06:45:33;;;;;;;3.95;2.10;;;19.80;61.70;20.00;100735.00;;;;4952593;28;92907;-62
2022/07/29 06:47:59;;;;;;;2.42;1.30;;;19.80;61.90;20.00;100734.00;;;;4951690;28;115352;-63
2022/07/29 06:50:25;;;;;;;1.52;1.13;;;19.80;61.30;20.10;100744.00;;;;4952671;28;94256;-63
2022/07/29 06:52:50;;;;;;;1.30;1.20;;;19.90;61.30;20.10;100740.00;;;;4952885;28;92707;-63
2022/07/29 06:55:19;;;;;;;2.00;1.38;;;19.90;61.00;20.20;100741.00;;;;4951821;28;109613;-62
2022/07/29 06:57:45;;;;;;;3.28;1.17;;;19.90;60.40;20.20;100747.00;;;;4951653;28;94077;-63
2022/07/29 07:00:12;;;;;;;1.45;1.33;;;20.00;60.50;20.30;100742.00;;;;4952309;28;93982;-63
2022/07/29 07:02:38;;;;;;;1.23;0.90;;;20.00;60.40;20.40;100753.00;;;;4952553;28;92967;-63
2022/07/29 07:05:05;;;;;;;1.40;0.98;;;20.10;60.00;20.40;100748.00;;;;4952913;28;107891;-63
2022/07/29 07:07:31;;;;;;;1.67;1.30;;;20.10;59.70;20.40;100749.00;;;;4952170;28;93051;-63
2022/07/29 07:09:56;;;;;;;5.03;1.58;;;20.20;59.80;20.50;100746.00;;;;4952066;28;92749;-64
2022/07/29 07:12:22;;;;;;;1.73;0.80;;;20.20;59.30;20.50;100752.00;;;;4950714;28;111353;-63
2022/07/29 07:14:48;;;;;;;2.15;0.80;;;20.20;59.30;20.50;100753.00;;;;4951202;28;106728;-63
2022/07/29 07:17:13;;;;;;;0.75;0.75;;;20.30;59.00;20.50;100757.00;;;;4951338;28;123237;-63
2022/07/29 07:19:39;;;;;;;0.70;0.70;;;20.30;58.50;20.60;100758.00;;;;4951270;28;122592;-63
2022/07/29 07:22:05;;;;;;;0.73;0.60;;;20.30;58.70;20.60;100757.00;;;;4952133;28;95477;-64
2022/07/29 07:24:31;;;;;;;1.75;1.00;;;20.40;58.40;20.70;100756.00;;;;4951917;28;108308;-63
2022/07/29 07:26:56;;;;;;;1.42;1.20;;;20.40;58.60;20.80;100753.00;;;;4950124;28;122908;-64
2022/07/29 07:29:22;;;;;;;1.20;0.93;;;20.50;58.40;20.90;100764.00;;;;4949357;28;93506;-63
2022/07/29 07:31:48;;;;;;;1.27;0.85;;;20.60;58.30;21.00;100751.00;;;;4952529;28;92965;-63
2022/07/29 07:34:13;;;;;;;4.75;0.73;;;20.70;58.00;21.10;100749.00;;;;4934030;28;108595;-64
2022/07/29 07:36:39;;;;;;;0.88;0.70;;;20.80;57.90;21.10;100746.00;;;;4950259;28;123164;-64
2022/07/29 07:39:05;;;;;;;1.42;0.93;;;20.80;57.20;21.20;100740.00;;;;4951031;28;122602;-63
2022/07/29 07:41:31;;;;;;;2.95;1.08;;;20.90;57.30;21.30;100741.00;;;;4952032;28;92712;-63
2022/07/29 07:43:56;;;;;;;1.95;1.02;;;21.00;57.40;21.40;100752.00;;;;4952604;28;92975;-63
2022/07/29 07:46:22;;;;;;;0.82;0.80;;;21.10;57.70;21.60;100746.00;;;;4951872;28;122854;-63
2022/07/29 07:48:48;;;;;;;2.80;1.45;;;21.30;57.80;21.80;100746.00;;;;4954127;28;122453;-63
2022/07/29 07:51:14;;;;;;;1.45;1.02;;;21.40;57.40;21.90;100747.00;;;;4954617;28;110456;-64
2022/07/29 07:53:39;;;;;;;1.73;0.98;;;21.60;57.40;22.10;100732.00;;;;4937168;28;92040;-63
2022/07/29 07:56:06;;;;;;;2.85;0.95;;;21.70;57.20;22.20;100736.00;;;;4955070;28;93227;-63
2022/07/29 07:58:32;;;;;;;0.60;0.60;;;21.80;56.60;22.40;100727.00;;;;4954719;28;93427;-63
2022/07/29 08:00:58;;;;;;;1.58;0.88;;;22.00;56.50;22.50;100736.00;;;;4945747;28;101159;-63
2022/07/29 08:03:23;;;;;;;1.30;0.90;;;22.10;56.30;22.70;100733.00;;;;4955167;28;92746;-63
2022/07/29 08:05:51;;;;;;;4.30;1.50;;;22.30;55.80;22.90;100744.00;;;;4953738;28;120795;-64
2022/07/29 08:08:17;;;;;;;1.75;1.05;;;22.50;55.80;23.00;100751.00;;;;4954484;28;92903;-64
2022/07/29 08:10:52;;;;;;;6.18;1.25;;;22.70;54.00;23.10;100737.00;;;;4955452;28;92692;-63
2022/07/29 08:13:20;;;;;;;1.80;1.25;;;22.70;53.50;23.00;100741.00;;;;4955473;28;92859;-64
2022/07/29 08:15:45;;;;;;;1.17;1.08;;;22.70;53.00;23.00;100741.00;;;;4955108;28;93483;-63
2022/07/29 08:18:14;;;;;;;2.17;0.90;;;22.70;52.70;23.00;100735.00;;;;4954786;28;93771;-64
2022/07/29 08:20:40;;;;;;;2.40;0.75;;;22.70;52.90;23.00;100737.00;;;;4953293;28;109270;-64
2022/07/29 08:23:08;;;;;;;2.92;1.33;;;22.70;53.20;23.00;100739.00;;;;4954656;28;108588;-64
2022/07/29 08:25:37;;;;;;;2.45;0.70;;;22.70;53.50;23.00;100738.00;;;;4954073;28;93931;-64
2022/07/29 08:28:03;;;;;;;2.13;0.77;;;22.70;53.00;23.10;100733.00;;;;4954244;28;94863;-64
2022/07/29 08:30:29;;;;;;;0.82;0.70;;;22.70;53.00;23.20;100732.00;;;;4955443;28;94861;-64
2022/07/29 08:32:55;;;;;;;4.38;1.33;;;22.80;53.00;23.30;100734.00;;;;4954816;28;92790;-64
2022/07/29 08:35:22;;;;;;;1.48;0.85;;;22.90;53.30;23.50;100734.00;;;;4954940;28;94030;-64
2022/07/29 08:37:48;;;;;;;0.77;0.77;;;23.10;53.50;23.70;100729.00;;;;4954521;28;93909;-64
2022/07/29 08:40:14;;;;;;;2.20;1.15;;;23.30;52.70;23.70;100730.00;;;;4953854;28;92898;-63
2022/07/29 08:42:40;;;;;;;1.15;1.00;;;23.40;51.90;23.80;100721.00;;;;4955535;28;92028;-64
2022/07/29 08:45:06;;;;;;;1.05;0.85;;;23.40;51.80;23.90;100712.00;;;;4954230;28;93597;-63
2022/07/29 08:47:35;;;;;;;0.98;0.80;;;23.50;52.00;24.00;100725.00;;;;4953401;28;109322;-63
2022/07/29 08:50:01;;;;;;;1.48;1.23;;;23.60;52.10;24.10;100713.00;;;;4954329;28;93905;-64
2022/07/29 08:52:32;;;;;;;0.82;0.68;;;23.80;51.70;24.30;100726.00;;;;4954279;28;92939;-63
2022/07/29 08:54:59;;;;;;;1.75;1.30;;;23.90;51.60;24.40;100719.00;;;;4935397;28;107543;-63
2022/07/29 08:57:26;;;;;;;2.67;1.20;;;24.00;51.00;24.50;100713.00;;;;4935037;28;122718;-64
2022/07/29 08:59:54;;;;;;;1.65;0.73;;;24.10;50.50;24.60;100725.00;;;;4953574;28;111145;-64
2022/07/29 09:02:22;;;;;;;0.63;0.60;;;24.30;50.20;24.70;100720.00;;;;4935387;28;109061;-63
2022/07/29 09:04:48;;;;;;;1.92;0.82;;;24.30;50.10;24.90;100724.00;;;;4953833;28;93086;-64
2022/07/29 09:07:17;;;;;;;0.88;0.88;;;24.50;49.80;25.00;100720.00;;;;4954294;28;92757;-65
2022/07/29 09:09:43;;;;;;;6.43;1.50;;;24.60;49.60;25.20;100722.00;;;;4936122;28;93133;-64
2022/07/29 09:12:11;;;;;;;1.38;0.82;;;24.80;50.00;25.50;100721.00;;;;4954493;28;92870;-65
2022/07/29 09:14:38;;;;;;;3.15;1.00;;;25.00;49.90;25.80;100717.00;;;;4953607;28;95071;-65
2022/07/29 09:17:04;;;;;;;1.85;1.40;;;25.30;49.80;26.20;100720.00;;;;4954281;28;94140;-65
2022/07/29 09:19:35;;;;;;;1.10;1.00;;;25.70;49.60;26.60;100711.00;;;;4953660;28;109286;-64
2022/07/29 09:22:05;;;;;;;4.75;1.30;;;26.10;49.00;27.00;100710.00;;;;4954055;28;98057;-63
2022/07/29 09:24:40;;;;;;;2.22;1.13;;;26.40;48.80;27.40;100707.00;;;;4953914;28;93113;-64
2022/07/29 09:27:26;;;;;;;2.33;1.23;;;26.80;48.30;27.90;100707.00;;;;4953880;28;93853;-64
2022/07/29 09:30:12;;;;;;;2.60;1.02;;;27.30;48.00;28.40;100712.00;;;;4953678;28;93075;-65
2022/07/29 09:32:59;;;;;;;2.22;0.75;;;27.80;44.90;28.40;100705.00;;;;4953738;28;92218;-65
2022/07/29 09:35:26;;;;;;;1.30;0.98;;;28.00;43.20;28.20;100706.00;;;;4954083;28;93796;-65
2022/07/29 09:37:52;;;;;;;0.77;0.70;;;27.80;43.30;28.10;100701.00;;;;4953546;28;92837;-65
2022/07/29 09:40:28;;;;;;;0.45;0.40;;;27.70;44.40;28.20;100705.00;;;;4934593;28;94457;-64
2022/07/29 09:42:57;;;;;;;2.00;0.90;;;27.80;44.70;28.20;100705.00;;;;4954320;28;92761;-64
2022/07/29 09:45:33;;;;;;;1.13;1.02;;;27.80;44.60;28.10;100699.00;;;;4953729;28;92969;-64
2022/07/29 09:48:13;;;;;;;1.13;1.02;;;27.80;43.70;28.00;100703.00;;;;4942670;28;93683;-65
2022/07/29 09:50:41;;;;;;;1.35;0.98;;;27.70;44.00;27.90;100699.00;;;;4953074;28;92890;-64
2022/07/29 09:53:09;;;;;;;1.13;0.68;;;27.60;44.30;27.70;100700.00;;;;4954694;28;92966;-65
2022/07/29 09:55:54;;;;;;;0.80;0.60;;;27.40;43.30;27.50;100696.00;;;;4953325;28;93736;-64
2022/07/29 09:58:22;;;;;;;2.70;0.63;;;27.20;43.90;27.40;100697.00;;;;4952083;28;121447;-65
2022/07/29 10:00:49;;;;;;;1.45;1.13;;;27.10;44.00;27.30;100699.00;;;;4953699;28;92717;-63
2022/07/29 10:03:16;;;;;;;0.98;0.80;;;27.00;44.20;27.30;100697.00;;;;4953846;28;93023;-64
2022/07/29 10:05:43;;;;;;;2.50;1.58;;;27.00;44.00;27.30;100704.00;;;;4952259;28;94462;-64
2022/07/29 10:08:12;;;;;;;3.15;1.20;;;26.90;44.50;27.40;100704.00;;;;4952081;28;115982;-65
2022/07/29 10:10:41;;;;;;;1.73;1.15;;;26.90;44.80;27.40;100707.00;;;;4952602;28;92930;-65
2022/07/29 10:13:12;;;;;;;1.08;0.88;;;27.00;45.00;27.50;100716.00;;;;4953778;28;92837;-64
2022/07/29 10:15:44;;;;;;;1.48;1.30;;;27.10;44.90;27.40;100711.00;;;;4953109;28;94062;-63
2022/07/29 10:18:12;;;;;;;0.73;0.73;;;27.10;43.80;27.40;100707.00;;;;4952403;28;93515;-62
2022/07/29 10:20:38;;;;;;;1.02;0.75;;;27.00;44.10;27.40;100715.00;;;;4953235;28;92772;-63
2022/07/29 10:23:05;;;;;;;2.95;1.20;;;27.00;43.90;27.40;100707.00;;;;4952407;28;107454;-63
2022/07/29 10:25:31;;;;;;;1.05;1.02;;;27.00;43.90;27.50;100719.00;;;;4952484;28;93761;-63
2022/07/29 10:27:57;;;;;;;2.05;0.90;;;27.00;43.80;27.50;100701.00;;;;4953001;28;93070;-62
2022/07/29 10:30:25;;;;;;;1.10;0.98;;;27.10;43.50;27.60;100718.00;;;;4951229;28;109581;-64
2022/07/29 10:33:28;;;;;;;1.73;1.20;;;27.20;43.60;28.00;100708.00;;;;4953192;28;92912;-62
2022/07/29 10:36:40;;;;;;;1.52;0.80;;;27.40;43.80;28.60;100704.00;;;;4934308;28;94181;-63
2022/07/29 10:39:46;;;;;;;0.63;0.63;;;27.90;43.20;29.20;100703.00;;;;4953011;28;93001;-63
2022/07/29 10:42:20;;;;;;;1.23;0.95;;;28.40;42.60;29.60;100699.00;;;;4950139;28;101093;-64
2022/07/29 10:44:46;;;;;;;0.82;0.63;;;28.90;42.00;30.10;100695.00;;;;4934558;28;93046;-64
2022/07/29 10:47:26;;;;;;;1.98;1.30;;;29.30;41.70;30.50;100690.00;;;;4934177;28;102065;-64
2022/07/29 10:50:04;;;;;;;1.25;0.75;;;29.70;41.30;30.80;100689.00;;;;4951543;28;118328;-63
2022/07/29 10:52:54;;;;;;;2.72;1.27;;;30.10;40.20;31.00;100685.00;;;;4934543;28;92735;-64
2022/07/29 10:55:48;;;;;;;1.38;0.93;;;30.30;39.60;31.30;100672.00;;;;4952970;28;92747;-63